Time;durP1;ratioP1;P1;durP2;ratioP2;P2;SDS_P1;SDS_P2;PMS_P1;PMS_P2;Temp;Humidity;BMP_temperature;BMP_pressure;BME280_temperature;BME280_humidity;BME280_pressure;Samples;Min_cycle;Max_cycle;Signal;HPM_P1;HPM_P2
2023/04/22 00:01:32;;;;;;;5.60;5.10;;;22.30;60.10;;;;;;222142;1263;25259;-43
2023/04/22 00:06:36;;;;;;;9.30;5.50;;;22.20;60.00;;;;;;222068;1254;23913;-48
2023/04/22 00:11:40;;;;;;;8.80;5.70;;;22.20;59.90;;;;;;221929;1255;23872;-43
2023/04/22 00:16:44;;;;;;;10.00;5.60;;;22.30;61.00;;;;;;222427;1254;23921;-43
2023/04/22 00:21:49;;;;;;;6.50;5.00;;;22.20;63.10;;;;;;222204;1264;22643;-42
2023/04/22 00:26:53;;;;;;;9.20;5.10;;;22.30;63.00;;;;;;222268;1257;22522;-44
2023/04/22 00:31:57;;;;;;;9.10;4.80;;;22.30;63.10;;;;;;222064;1262;22520;-47
2023/04/22 00:37:01;;;;;;;6.20;4.70;;;22.20;62.20;;;;;;222045;1257;22507;-45
2023/04/22 00:42:06;;;;;;;7.10;5.30;;;22.30;62.60;;;;;;221954;1262;22508;-44
2023/04/22 00:47:12;;;;;;;7.20;4.90;;;22.20;62.70;;;;;;222383;1264;22511;-45
2023/04/22 00:52:16;;;;;;;7.80;5.30;;;22.20;62.00;;;;;;222225;1267;22509;-46
2023/04/22 00:57:20;;;;;;;6.40;5.40;;;22.20;62.50;;;;;;222050;1258;22513;-44
2023/04/22 01:02:24;;;;;;;6.70;4.70;;;22.20;62.30;;;;;;221917;1269;22521;-44
2023/04/22 01:07:28;;;;;;;6.10;4.90;;;22.20;62.20;;;;;;222066;1248;24346;-45
2023/04/22 01:12:34;;;;;;;5.50;4.80;;;22.20;62.30;;;;;;222204;1254;25415;-45
2023/04/22 01:17:38;;;;;;;5.90;4.90;;;22.20;62.30;;;;;;222082;1256;25204;-45
2023/04/22 01:22:45;;;;;;;6.80;4.70;;;22.10;62.00;;;;;;221677;1262;22527;-48
2023/04/22 01:27:49;;;;;;;5.60;4.90;;;22.10;62.00;;;;;;222037;1262;23528;-44
2023/04/22 01:32:54;;;;;;;5.30;4.60;;;22.10;62.00;;;;;;221636;1255;24232;-44
2023/04/22 01:37:58;;;;;;;5.00;4.50;;;22.10;61.90;;;;;;221800;1254;22511;-44
2023/04/22 01:43:02;;;;;;;6.60;4.40;;;22.10;62.30;;;;;;221863;1247;24002;-44
2023/04/22 01:48:06;;;;;;;4.60;4.20;;;22.10;61.90;;;;;;221929;1263;23469;-45
2023/04/22 01:53:12;;;;;;;5.50;4.90;;;22.00;61.90;;;;;;221990;1256;22808;-45
2023/04/22 01:58:16;;;;;;;5.80;4.30;;;22.00;61.80;;;;;;221800;1254;23861;-44
2023/04/22 02:03:20;;;;;;;6.00;4.80;;;22.00;61.70;;;;;;221982;1254;24345;-43
2023/04/22 02:08:24;;;;;;;4.80;4.40;;;22.00;61.70;;;;;;221827;1256;22524;-45
2023/04/22 02:13:36;;;;;;;5.00;4.60;;;21.90;61.70;;;;;;221946;1254;24270;-44
2023/04/22 02:18:40;;;;;;;;;;;22.00;61.70;;;;;;222150;1253;22489;-43
2023/04/22 02:23:44;;;;;;;5.50;4.90;;;21.90;62.00;;;;;;221814;1257;24071;-45
2023/04/22 02:28:48;;;;;;;5.60;4.50;;;21.90;61.60;;;;;;222020;1267;23537;-45
2023/04/22 02:33:52;;;;;;;5.30;4.60;;;21.80;61.60;;;;;;222030;1257;24264;-46
2023/04/22 02:38:57;;;;;;;6.00;4.40;;;21.90;61.60;;;;;;222049;1264;22511;-44
2023/04/22 02:44:01;;;;;;;4.80;4.00;;;21.80;61.50;;;;;;222534;1263;22549;-44
2023/04/22 02:49:05;;;;;;;4.90;4.50;;;22.00;61.30;;;;;;222113;1262;23882;-43
2023/04/22 02:54:09;;;;;;;5.40;4.50;;;22.40;60.50;;;;;;222149;1253;25153;-45
2023/04/22 02:59:13;;;;;;;4.60;4.30;;;22.60;60.20;;;;;;222135;1265;24176;-43
2023/04/22 03:04:20;;;;;;;4.40;4.00;;;22.80;59.90;;;;;;222311;1262;22504;-44
2023/04/22 03:09:25;;;;;;;6.60;4.10;;;23.00;59.30;;;;;;222088;1263;22524;-45
2023/04/22 03:14:29;;;;;;;5.40;4.90;;;23.10;58.80;;;;;;222109;1247;23889;-45
2023/04/22 03:19:35;;;;;;;5.40;4.40;;;23.30;58.60;;;;;;222493;1263;22514;-43
2023/04/22 03:24:39;;;;;;;4.70;4.00;;;23.30;58.80;;;;;;222043;1264;24233;-45
2023/04/22 03:29:44;;;;;;;4.70;4.30;;;23.30;58.30;;;;;;222173;1263;22829;-44
2023/04/22 03:34:48;;;;;;;5.80;4.00;;;23.40;58.10;;;;;;222190;1263;25210;-47
2023/04/22 03:39:54;;;;;;;4.60;4.20;;;23.40;58.20;;;;;;221975;1258;22512;-46
2023/04/22 03:44:59;;;;;;;4.30;4.00;;;23.40;58.00;;;;;;222062;1256;24183;-47
2023/04/22 03:50:06;;;;;;;4.40;4.10;;;23.50;57.80;;;;;;222215;1261;22523;-46
2023/04/22 03:55:11;;;;;;;4.90;4.00;;;23.50;57.30;;;;;;222098;1266;22511;-45
2023/04/22 04:00:15;;;;;;;4.00;3.60;;;23.40;58.20;;;;;;222274;1254;25380;-41
2023/04/22 04:05:22;;;;;;;5.00;4.60;;;23.40;57.90;;;;;;222483;1253;22586;-44
2023/04/22 04:10:26;;;;;;;4.30;4.00;;;23.50;57.60;;;;;;222348;1257;24189;-46
2023/04/22 04:15:31;;;;;;;4.20;3.90;;;23.40;57.80;;;;;;222399;1255;22514;-43
2023/04/22 04:20:36;;;;;;;4.70;4.30;;;23.30;57.60;;;;;;222240;1263;22627;-47
2023/04/22 04:25:42;;;;;;;4.90;4.50;;;23.20;58.60;;;;;;221809;1269;22553;-43
2023/04/22 04:30:47;;;;;;;5.00;4.40;;;23.10;58.50;;;;;;222144;1266;22520;-48
2023/04/22 04:35:52;;;;;;;5.00;4.50;;;23.10;58.80;;;;;;222268;1263;22659;-45
2023/04/22 04:41:00;;;;;;;4.60;4.20;;;23.00;58.40;;;;;;222304;1263;22688;-44
2023/04/22 04:46:05;;;;;;;6.60;4.20;;;22.90;58.80;;;;;;222504;1269;22514;-45
2023/04/22 04:51:11;;;;;;;7.60;4.60;;;22.80;59.40;;;;;;222256;1257;22656;-44
2023/04/22 04:56:20;;;;;;;4.60;4.30;;;22.80;59.00;;;;;;222374;1265;22504;-46
2023/04/22 05:01:24;;;;;;;4.80;4.40;;;22.70;59.30;;;;;;222235;1263;24705;-45
2023/04/22 05:06:30;;;;;;;4.10;3.80;;;22.70;59.50;;;;;;222000;1269;22600;-45
2023/04/22 05:11:38;;;;;;;4.70;4.20;;;22.60;59.30;;;;;;222348;1269;22589;-46
2023/04/22 05:16:47;;;;;;;4.60;4.20;;;22.60;59.80;;;;;;222276;1247;22557;-44
2023/04/22 05:21:52;;;;;;;4.20;3.90;;;22.50;59.40;;;;;;222277;1256;23879;-44
2023/04/22 05:26:56;;;;;;;4.40;4.00;;;22.50;59.50;;;;;;222165;1256;22554;-44
2023/04/22 05:32:00;;;;;;;5.10;4.60;;;22.50;59.50;;;;;;222374;1266;22601;-46
2023/04/22 05:37:07;;;;;;;4.30;4.00;;;22.50;59.60;;;;;;222103;1263;22704;-45
2023/04/22 05:42:11;;;;;;;4.60;4.10;;;22.50;59.60;;;;;;222367;1262;22521;-45
2023/04/22 05:47:16;;;;;;;7.30;4.20;;;22.50;59.70;;;;;;222199;1263;24306;-44
2023/04/22 05:52:20;;;;;;;4.30;4.00;;;22.50;59.60;;;;;;221891;1254;22508;-43
2023/04/22 05:57:36;;;;;;;4.70;4.30;;;22.40;59.60;;;;;;222015;1263;22752;-44
2023/04/22 06:02:45;;;;;;;4.70;4.10;;;22.40;59.60;;;;;;222022;1260;22632;-48
2023/04/22 06:07:50;;;;;;;5.70;4.50;;;22.40;59.70;;;;;;222124;1263;22620;-47
2023/04/22 06:12:54;;;;;;;4.20;3.90;;;22.40;59.70;;;;;;222189;1247;22508;-43
2023/04/22 06:17:58;;;;;;;5.40;4.20;;;22.40;59.70;;;;;;222309;1254;24355;-46
2023/04/22 06:23:04;;;;;;;5.90;4.60;;;22.40;59.90;;;;;;222145;1262;22515;-45
2023/04/22 06:28:08;;;;;;;8.60;4.70;;;22.40;60.00;;;;;;221953;1263;437434;-53
2023/04/22 06:33:12;;;;;;;7.50;4.40;;;22.40;59.60;;;;;;222383;1263;24236;-54
2023/04/22 06:38:17;;;;;;;5.10;4.30;;;22.50;59.20;;;;;;222165;1261;22505;-48
2023/04/22 06:43:42;;;;;;;6.10;4.80;;;22.50;59.40;;;;;;222005;1263;25390;-48
2023/04/22 06:48:48;;;;;;;4.90;4.40;;;22.50;59.00;;;;;;222214;1269;22526;-50
2023/04/22 06:54:13;;;;;;;4.80;4.40;;;22.60;59.00;;;;;;222220;1246;22530;-50
2023/04/22 06:59:17;;;;;;;7.80;4.90;;;22.50;59.40;;;;;;222217;1263;23545;-47
2023/04/22 07:04:23;;;;;;;5.70;4.10;;;22.50;59.50;;;;;;222402;1265;22655;-54
2023/04/22 07:09:27;;;;;;;11.80;5.00;;;22.50;59.30;;;;;;222595;1247;24358;-48
2023/04/22 07:14:35;;;;;;;7.80;4.90;;;22.50;60.00;;;;;;221890;1254;23928;-48
2023/04/22 07:19:45;;;;;;;8.70;4.80;;;22.50;59.90;;;;;;221919;1247;22512;-48
2023/04/22 07:24:49;;;;;;;14.70;4.90;;;22.60;59.80;;;;;;221915;1263;24053;-50
2023/04/22 07:29:53;;;;;;;9.30;4.60;;;22.70;59.80;;;;;;225423;1269;25337;-53
2023/04/22 07:34:57;;;;;;;6.80;4.70;;;22.70;59.50;;;;;;223125;1264;24187;-55
2023/04/22 07:40:01;;;;;;;6.00;4.30;;;22.60;59.40;;;;;;222056;1263;25349;-55
2023/04/22 07:45:06;;;;;;;8.20;4.40;;;22.60;59.60;;;;;;222017;1264;25324;-54
2023/04/22 07:50:11;;;;;;;5.10;4.60;;;22.60;59.70;;;;;;222306;1256;22514;-54
2023/04/22 07:55:15;;;;;;;7.60;4.30;;;22.60;59.70;;;;;;222199;1263;22585;-53
2023/04/22 08:00:20;;;;;;;6.40;4.40;;;22.60;59.40;;;;;;221962;1263;25340;-52
2023/04/22 08:05:24;;;;;;;7.20;4.40;;;22.70;59.40;;;;;;222150;1263;22532;-51
2023/04/22 08:10:28;;;;;;;5.90;4.90;;;22.70;59.70;;;;;;222571;1259;22525;-51
2023/04/22 08:15:32;;;;;;;8.00;4.40;;;22.70;59.70;;;;;;222886;1263;25856;-50
2023/04/22 08:20:36;;;;;;;6.30;4.30;;;22.90;59.70;;;;;;223133;1259;22586;-49
2023/04/22 08:25:41;;;;;;;9.20;4.50;;;22.70;60.20;;;;;;223206;1263;22741;-49
2023/04/22 08:30:45;;;;;;;10.80;4.90;;;22.70;61.10;;;;;;223436;1266;22753;-48
2023/04/22 08:35:49;;;;;;;8.60;4.50;;;22.80;61.30;;;;;;223718;1261;22510;-47
2023/04/22 08:40:55;;;;;;;10.30;4.50;;;22.80;61.90;;;;;;223538;1263;22663;-47
2023/04/22 08:46:01;;;;;;;10.10;4.50;;;22.80;61.30;;;;;;223637;1268;22765;-46
2023/04/22 08:51:06;;;;;;;4.60;4.10;;;23.00;60.90;;;;;;223582;1261;22638;-51
2023/04/22 08:56:12;;;;;;;7.00;4.60;;;23.00;61.00;;;;;;223175;1268;22639;-54
2023/04/22 09:01:16;;;;;;;8.50;4.40;;;23.10;60.80;;;;;;222481;1266;22598;-54
2023/04/22 09:06:21;;;;;;;8.70;4.00;;;23.00;61.10;;;;;;223167;1263;22788;-47
2023/04/22 09:11:31;;;;;;;5.70;4.10;;;23.10;61.30;;;;;;224057;1263;22497;-52
2023/04/22 09:16:57;;;;;;;5.90;4.50;;;23.30;61.80;;;;;;222434;1263;22638;-51
2023/04/22 09:22:01;;;;;;;5.00;4.50;;;23.30;62.30;;;;;;222336;1265;24239;-55
2023/04/22 09:27:05;;;;;;;5.20;4.60;;;23.30;61.90;;;;;;222368;1263;24220;-47
2023/04/22 09:32:10;;;;;;;7.30;4.60;;;23.40;61.80;;;;;;222483;1262;22984;-53
2023/04/22 09:37:17;;;;;;;4.90;4.40;;;23.40;61.80;;;;;;222293;1263;22510;-50
2023/04/22 09:42:21;;;;;;;7.90;4.70;;;23.50;62.00;;;;;;222220;1246;22513;-53
2023/04/22 09:47:34;;;;;;;7.20;4.50;;;23.50;62.00;;;;;;222326;1259;22557;-52
2023/04/22 09:52:38;;;;;;;6.60;4.40;;;23.50;61.40;;;;;;222469;1263;22596;-54
2023/04/22 09:57:42;;;;;;;7.90;4.30;;;23.60;62.30;;;;;;222356;1263;22626;-56
2023/04/22 10:02:46;;;;;;;12.50;4.70;;;23.60;62.60;;;;;;222269;1263;23901;-54
2023/04/22 10:07:50;;;;;;;8.00;4.40;;;23.60;62.70;;;;;;222219;1266;22522;-52
2023/04/22 10:12:56;;;;;;;5.40;4.10;;;23.70;62.50;;;;;;222135;1266;22523;-50
2023/04/22 10:18:04;;;;;;;9.10;4.10;;;23.70;62.00;;;;;;221995;1247;22525;-51
2023/04/22 10:23:14;;;;;;;6.60;4.10;;;23.70;61.60;;;;;;222273;1263;24214;-51
2023/04/22 10:28:21;;;;;;;4.60;4.00;;;23.70;61.90;;;;;;222440;1268;22522;-53
2023/04/22 10:33:37;;;;;;;11.10;4.20;;;23.70;61.90;;;;;;222343;1266;22649;-49
2023/04/22 10:38:54;;;;;;;7.30;3.90;;;23.70;62.80;;;;;;222502;1266;22572;-54
2023/04/22 10:44:06;;;;;;;6.50;3.70;;;23.80;62.70;;;;;;222411;1261;22537;-57
2023/04/22 10:49:14;;;;;;;12.50;4.40;;;23.90;62.40;;;;;;222496;1260;24171;-54
2023/04/22 10:54:25;;;;;;;14.50;4.60;;;23.80;61.60;;;;;;222637;1259;22515;-56
2023/04/22 10:59:39;;;;;;;11.50;5.20;;;23.90;62.00;;;;;;222674;1263;22530;-52
2023/04/22 11:04:45;;;;;;;8.10;4.30;;;23.90;61.80;;;;;;222356;1260;22815;-48
2023/04/22 11:09:58;;;;;;;8.50;3.80;;;23.90;62.00;;;;;;222466;1266;23549;-51
2023/04/22 11:15:13;;;;;;;5.50;3.30;;;23.90;62.00;;;;;;222248;1264;25594;-48
2023/04/22 11:20:17;;;;;;;7.10;4.10;;;23.90;62.10;;;;;;222240;1263;24246;-50
2023/04/22 11:25:23;;;;;;;6.00;4.10;;;23.90;62.10;;;;;;222067;1268;22997;-53
2023/04/22 11:30:30;;;;;;;10.00;4.60;;;23.90;62.10;;;;;;222246;1266;22685;-51
2023/04/22 11:35:37;;;;;;;7.90;4.40;;;23.90;62.10;;;;;;222349;1268;22768;-50
2023/04/22 11:40:41;;;;;;;8.10;4.20;;;23.90;62.10;;;;;;222095;1255;23899;-47
2023/04/22 11:45:49;;;;;;;5.80;4.00;;;23.90;62.00;;;;;;222339;1266;22514;-51
2023/04/22 11:51:10;;;;;;;5.20;4.00;;;24.00;62.30;;;;;;222029;1263;23932;-51
2023/04/22 11:56:14;;;;;;;6.20;3.70;;;24.00;61.80;;;;;;222249;1264;24673;-48
2023/04/22 12:01:19;;;;;;;4.90;3.70;;;24.00;61.90;;;;;;222156;1260;22529;-50
2023/04/22 12:06:23;;;;;;;4.90;3.40;;;23.90;61.90;;;;;;222289;1269;23909;-50
2023/04/22 12:11:27;;;;;;;4.30;3.70;;;23.90;61.70;;;;;;222068;1268;22511;-50
2023/04/22 12:16:40;;;;;;;4.40;4.00;;;23.90;61.80;;;;;;222252;1261;24395;-51
2023/04/22 12:21:46;;;;;;;4.40;3.70;;;24.00;61.90;;;;;;222484;1263;22627;-48
2023/04/22 12:26:50;;;;;;;3.80;3.50;;;23.90;61.80;;;;;;222353;1263;22514;-51
2023/04/22 12:31:54;;;;;;;4.00;3.70;;;24.00;61.70;;;;;;222129;1261;22555;-47
2023/04/22 12:36:58;;;;;;;3.60;3.30;;;24.00;61.60;;;;;;222272;1266;23920;-52
2023/04/22 12:42:05;;;;;;;5.00;3.30;;;24.00;61.60;;;;;;222491;1266;22737;-49
2023/04/22 12:47:08;;;;;;;3.60;3.30;;;24.00;61.40;;;;;;222632;1266;26094;-47
2023/04/22 12:52:13;;;;;;;6.10;3.80;;;24.10;61.40;;;;;;222470;1263;23922;-48
2023/04/22 12:57:17;;;;;;;3.90;3.60;;;24.00;61.10;;;;;;222327;1260;22508;-48
2023/04/22 13:02:21;;;;;;;3.60;3.20;;;24.10;61.20;;;;;;222835;1263;22517;-49
2023/04/22 13:07:26;;;;;;;3.80;3.50;;;24.10;61.50;;;;;;222464;1263;24787;-52
2023/04/22 13:12:30;;;;;;;3.50;3.20;;;24.10;61.20;;;;;;222509;1263;22505;-45
2023/04/22 13:17:36;;;;;;;5.10;3.40;;;24.00;61.00;;;;;;222529;1263;22933;-51
2023/04/22 13:22:42;;;;;;;3.40;3.10;;;24.00;60.90;;;;;;222336;1263;22565;-47
2023/04/22 13:27:46;;;;;;;5.00;3.40;;;24.10;61.20;;;;;;223042;1269;22521;-46
2023/04/22 13:32:50;;;;;;;3.50;3.20;;;24.10;61.10;;;;;;223104;1269;22652;-45
2023/04/22 13:37:55;;;;;;;2.90;3.20;;;24.10;60.60;;;;;;222333;1266;22515;-48
2023/04/22 13:42:59;;;;;;;3.70;3.40;;;24.00;60.60;;;;;;222203;1267;22618;-50
2023/04/22 13:48:03;;;;;;;8.00;3.20;;;24.00;60.70;;;;;;222282;1266;22614;-46
2023/04/22 13:53:12;;;;;;;3.60;3.20;;;23.90;60.90;;;;;;222182;1269;24209;-48
2023/04/22 13:58:17;;;;;;;3.50;3.20;;;24.00;60.70;;;;;;222194;1269;22519;-48
2023/04/22 14:03:23;;;;;;;6.00;3.90;;;24.00;60.60;;;;;;222286;1269;22562;-50
2023/04/22 14:08:28;;;;;;;3.90;3.50;;;24.00;61.10;;;;;;222168;1269;22524;-48
2023/04/22 14:13:32;;;;;;;5.70;3.10;;;24.10;60.80;;;;;;222487;1263;22626;-52
2023/04/22 14:18:38;;;;;;;9.70;3.90;;;24.10;61.20;;;;;;222622;1263;22515;-48
2023/04/22 14:23:42;;;;;;;7.80;4.40;;;23.90;61.40;;;;;;222384;1265;22574;-50
2023/04/22 14:28:46;;;;;;;7.00;3.20;;;23.90;60.90;;;;;;222258;1263;23925;-49
2023/04/22 14:33:51;;;;;;;4.60;3.50;;;24.00;60.80;;;;;;222125;1263;22685;-50
2023/04/22 14:38:56;;;;;;;4.00;3.40;;;24.00;61.20;;;;;;222339;1266;25455;-49
2023/04/22 14:44:00;;;;;;;5.50;3.30;;;23.90;60.70;;;;;;222396;1260;23887;-51
2023/04/22 14:49:04;;;;;;;3.50;2.80;;;23.90;61.00;;;;;;222235;1264;24075;-51
2023/04/22 14:54:08;;;;;;;5.10;3.00;;;23.90;61.10;;;;;;222359;1263;22837;-53
2023/04/22 14:59:13;;;;;;;7.10;3.00;;;23.90;61.10;;;;;;222392;1264;22515;-50
2023/04/22 15:04:18;;;;;;;4.60;3.30;;;23.90;61.60;;;;;;222000;1266;22525;-50
2023/04/22 15:09:23;;;;;;;4.60;3.00;;;23.90;61.00;;;;;;222345;1266;22775;-48
2023/04/22 15:14:29;;;;;;;4.00;3.20;;;23.90;60.80;;;;;;222403;1264;22534;-47
2023/04/22 15:19:35;;;;;;;6.80;3.40;;;23.90;60.80;;;;;;222530;1256;24208;-46
2023/04/22 15:24:38;;;;;;;6.60;3.10;;;23.90;60.70;;;;;;222435;1263;22598;-49
2023/04/22 15:29:45;;;;;;;6.20;3.00;;;23.80;61.20;;;;;;222342;1263;22508;-49
2023/04/22 15:34:49;;;;;;;11.80;3.60;;;23.70;61.30;;;;;;222330;1263;22514;-51
2023/04/22 15:39:53;;;;;;;3.20;2.90;;;23.70;61.30;;;;;;222197;1263;25308;-48
2023/04/22 15:44:57;;;;;;;4.30;2.90;;;23.70;60.70;;;;;;222216;1268;24269;-47
2023/04/22 15:50:07;;;;;;;4.60;2.60;;;23.70;60.60;;;;;;222050;1267;22626;-49
2023/04/22 15:55:12;;;;;;;6.10;2.90;;;23.80;60.90;;;;;;222400;1257;24292;-50
2023/04/22 16:00:17;;;;;;;3.90;3.50;;;23.80;60.10;;;;;;222179;1260;22833;-47
2023/04/22 16:05:23;;;;;;;7.40;3.60;;;23.70;58.10;;;;;;222287;1263;22511;-49
2023/04/22 16:10:27;;;;;;;3.90;3.30;;;23.80;57.50;;;;;;222321;1269;22530;-46
2023/04/22 16:15:31;;;;;;;5.10;3.70;;;23.80;57.70;;;;;;222233;1266;22525;-48
2023/04/22 16:20:35;;;;;;;4.20;3.70;;;23.80;55.70;;;;;;222204;1266;23626;-47
2023/04/22 16:25:40;;;;;;;3.70;3.10;;;23.90;56.70;;;;;;221973;1269;22517;-49
2023/04/22 16:30:44;;;;;;;9.00;4.40;;;23.80;57.50;;;;;;222055;1264;22516;-47
2023/04/22 16:35:48;;;;;;;4.60;4.00;;;23.90;59.60;;;;;;222337;1266;22517;-49
2023/04/22 16:40:53;;;;;;;7.80;4.30;;;24.00;61.10;;;;;;222324;1266;22521;-49
2023/04/22 16:45:57;;;;;;;7.50;4.40;;;24.00;62.30;;;;;;222413;1269;24972;-54
2023/04/22 16:51:01;;;;;;;6.20;4.30;;;24.00;62.60;;;;;;222422;1263;25541;-53
2023/04/22 16:56:07;;;;;;;7.60;4.60;;;24.10;63.10;;;;;;222300;1269;24324;-48
2023/04/22 17:01:11;;;;;;;8.10;4.50;;;24.10;63.40;;;;;;222365;1266;22507;-48
2023/04/22 17:06:15;;;;;;;8.30;4.80;;;24.10;63.90;;;;;;222524;1266;22705;-50
2023/04/22 17:11:19;;;;;;;7.50;5.20;;;24.10;64.70;;;;;;226902;1256;23921;-48
2023/04/22 17:16:23;;;;;;;7.10;5.90;;;24.20;64.20;;;;;;226675;1266;22529;-48
2023/04/22 17:21:28;;;;;;;6.30;5.60;;;24.30;64.30;;;;;;222395;1269;22514;-51
2023/04/22 17:26:33;;;;;;;15.20;8.00;;;24.30;63.20;;;;;;222424;1269;22573;-52
2023/04/22 17:31:38;;;;;;;10.30;8.10;;;24.30;62.70;;;;;;222829;1269;22517;-51
2023/04/22 17:36:42;;;;;;;10.40;7.80;;;24.20;62.80;;;;;;222548;1269;22508;-50
2023/04/22 17:41:46;;;;;;;9.70;7.40;;;24.20;61.70;;;;;;222582;1267;22617;-49
2023/04/22 17:46:50;;;;;;;9.70;7.10;;;24.10;60.00;;;;;;222474;1267;22519;-49
2023/04/22 17:51:55;;;;;;;8.50;7.20;;;24.20;58.50;;;;;;222430;1266;22779;-48
2023/04/22 17:57:01;;;;;;;7.60;6.80;;;24.10;58.00;;;;;;222474;1264;22524;-47
2023/04/22 18:02:05;;;;;;;11.80;7.40;;;24.00;57.60;;;;;;222293;1267;24205;-48
2023/04/22 18:07:10;;;;;;;10.10;7.10;;;24.00;56.60;;;;;;222452;1264;22656;-47
2023/04/22 18:12:16;;;;;;;9.50;6.70;;;23.90;56.10;;;;;;222320;1264;24343;-50
2023/04/22 18:17:20;;;;;;;9.70;6.70;;;23.90;55.90;;;;;;222746;1261;24314;-46
2023/04/22 18:22:25;;;;;;;8.50;6.20;;;24.00;55.50;;;;;;222276;1260;22517;-49
2023/04/22 18:27:30;;;;;;;12.20;6.50;;;23.90;55.10;;;;;;222262;1262;191641;-52
2023/04/22 18:32:37;;;;;;;10.80;6.00;;;24.00;55.90;;;;;;222672;1261;23900;-51
2023/04/22 18:37:43;;;;;;;14.20;6.30;;;24.00;55.30;;;;;;222610;1263;24233;-48
2023/04/22 18:42:48;;;;;;;8.00;6.60;;;24.10;55.60;;;;;;222461;1260;22566;-53
2023/04/22 18:47:53;;;;;;;9.00;5.90;;;24.10;56.50;;;;;;222457;1261;24185;-49
2023/04/22 18:52:58;;;;;;;12.50;6.30;;;24.10;56.70;;;;;;222336;1260;24215;-49
2023/04/22 18:58:02;;;;;;;7.90;6.80;;;24.10;57.20;;;;;;222414;1261;22537;-50
2023/04/22 19:03:06;;;;;;;12.20;6.40;;;24.00;57.70;;;;;;222228;1264;22516;-49
2023/04/22 19:08:12;;;;;;;11.30;7.60;;;24.00;57.70;;;;;;222120;1263;22515;-52
2023/04/22 19:13:17;;;;;;;9.40;7.00;;;24.10;57.70;;;;;;222551;1260;22518;-49
2023/04/22 19:18:33;;;;;;;8.40;6.70;;;24.10;57.90;;;;;;222097;1263;22515;-48
2023/04/22 19:23:41;;;;;;;10.00;7.10;;;24.00;57.80;;;;;;222051;1260;22669;-48
2023/04/22 19:28:49;;;;;;;9.80;7.60;;;24.00;58.10;;;;;;222059;1260;23918;-49
2023/04/22 19:33:55;;;;;;;15.60;9.60;;;24.00;58.20;;;;;;222316;1266;25325;-50
2023/04/22 19:39:04;;;;;;;15.30;8.00;;;23.90;58.90;;;;;;222285;1257;25268;-49
2023/04/22 19:44:12;;;;;;;13.00;8.90;;;23.70;60.80;;;;;;222583;1268;22991;-51
2023/04/22 19:49:21;;;;;;;12.10;9.10;;;23.70;62.30;;;;;;222279;1254;24228;-50
2023/04/22 19:54:27;;;;;;;14.00;8.40;;;23.80;61.00;;;;;;222273;1257;24676;-46
2023/04/22 19:59:33;;;;;;;13.70;8.20;;;23.80;60.80;;;;;;222313;1254;22521;-55
2023/04/22 20:04:41;;;;;;;15.70;9.20;;;24.00;63.60;;;;;;222185;1262;26237;-50
2023/04/22 20:09:50;;;;;;;14.30;9.90;;;24.00;62.30;;;;;;222402;1257;24193;-47
2023/04/22 20:14:56;;;;;;;15.20;9.30;;;23.90;61.70;;;;;;222383;1257;25313;-50
2023/04/22 20:20:06;;;;;;;17.60;9.40;;;23.80;62.40;;;;;;222394;1262;23126;-51
2023/04/22 20:25:15;;;;;;;16.00;9.70;;;23.90;62.00;;;;;;222471;1263;22610;-51
2023/04/22 20:30:20;;;;;;;13.30;9.60;;;23.70;62.00;;;;;;222229;1254;26392;-52
2023/04/22 20:35:24;;;;;;;18.00;9.60;;;23.70;62.10;;;;;;222368;1257;22924;-52
2023/04/22 20:40:28;;;;;;;17.00;9.60;;;23.70;62.90;;;;;;222241;1257;22667;-48
2023/04/22 20:45:32;;;;;;;16.60;10.00;;;23.80;64.40;;;;;;222198;1253;22517;-46
2023/04/22 20:50:39;;;;;;;16.90;9.90;;;23.90;64.50;;;;;;222067;1250;22596;-47
2023/04/22 20:55:44;;;;;;;13.80;9.30;;;23.90;64.30;;;;;;222309;1257;23139;-46
2023/04/22 21:00:50;;;;;;;15.20;9.90;;;23.90;64.50;;;;;;222006;1263;25496;-44
2023/04/22 21:05:57;;;;;;;15.50;9.20;;;23.80;64.70;;;;;;222256;1260;26503;-45
2023/04/22 21:11:02;;;;;;;16.40;9.50;;;23.70;65.20;;;;;;224276;1254;24203;-48
2023/04/22 21:16:10;;;;;;;15.50;9.60;;;23.80;65.00;;;;;;222229;1263;22616;-45
2023/04/22 21:21:16;;;;;;;12.60;9.20;;;23.80;64.90;;;;;;222306;1257;22522;-46
2023/04/22 21:26:21;;;;;;;14.20;9.50;;;23.70;64.50;;;;;;222518;1263;23952;-47
2023/04/22 21:31:26;;;;;;;14.90;10.00;;;23.70;64.50;;;;;;222308;1257;24256;-49
2023/04/22 21:36:30;;;;;;;16.70;10.40;;;23.60;64.90;;;;;;222235;1259;25607;-46
2023/04/22 21:41:34;;;;;;;11.60;8.70;;;23.60;65.00;;;;;;222112;1253;23925;-46
2023/04/22 21:46:38;;;;;;;12.90;9.30;;;23.60;64.10;;;;;;222352;1254;22536;-47
2023/04/22 21:51:42;;;;;;;14.80;8.90;;;23.70;63.70;;;;;;222138;1261;24383;-45
2023/04/22 21:56:46;;;;;;;15.10;9.60;;;23.80;63.10;;;;;;222350;1256;25334;-48
2023/04/22 22:01:51;;;;;;;13.20;9.50;;;23.60;63.90;;;;;;222307;1256;22524;-47
2023/04/22 22:06:56;;;;;;;14.20;9.60;;;23.60;64.60;;;;;;221973;1260;22525;-47
2023/04/22 22:12:00;;;;;;;12.20;8.90;;;23.70;64.20;;;;;;222625;1254;23921;-49
2023/04/22 22:17:07;;;;;;;10.70;9.20;;;23.50;64.20;;;;;;222361;1260;22665;-46
2023/04/22 22:22:10;;;;;;;14.40;8.80;;;23.50;64.20;;;;;;222199;1258;22510;-46
2023/04/22 22:27:15;;;;;;;12.00;9.10;;;23.40;65.20;;;;;;222141;1254;22646;-46
2023/04/22 22:32:19;;;;;;;12.80;9.60;;;23.30;65.10;;;;;;222465;1262;25379;-46
2023/04/22 22:37:23;;;;;;;11.60;9.40;;;23.50;63.90;;;;;;221975;1249;24252;-55
2023/04/22 22:42:28;;;;;;;12.20;8.70;;;23.40;64.40;;;;;;222564;1263;22640;-53
2023/04/22 22:47:32;;;;;;;12.10;9.30;;;23.40;64.40;;;;;;222309;1254;22517;-54
2023/04/22 22:52:36;;;;;;;11.60;9.20;;;23.40;64.70;;;;;;222333;1263;23043;-55
2023/04/22 22:57:40;;;;;;;13.00;9.50;;;23.40;64.20;;;;;;222145;1263;24239;-51
2023/04/22 23:02:44;;;;;;;12.00;9.80;;;23.40;64.00;;;;;;222430;1263;22525;-51
2023/04/22 23:07:49;;;;;;;12.70;9.20;;;23.30;64.30;;;;;;222157;1263;25900;-54
2023/04/22 23:12:53;;;;;;;12.30;10.20;;;23.30;63.90;;;;;;222166;1246;24129;-52
2023/04/22 23:17:57;;;;;;;13.90;9.70;;;23.30;63.90;;;;;;222155;1260;22512;-56
2023/04/22 23:23:03;;;;;;;11.80;10.60;;;23.30;63.80;;;;;;222474;1258;22527;-51
2023/04/22 23:28:07;;;;;;;12.90;9.70;;;23.10;63.90;;;;;;222250;1247;22518;-52
2023/04/22 23:33:15;;;;;;;12.10;9.30;;;23.10;64.00;;;;;;222534;1259;22594;-53
2023/04/22 23:38:19;;;;;;;11.20;9.20;;;23.10;64.30;;;;;;222330;1253;24246;-52
2023/04/22 23:43:23;;;;;;;10.80;9.70;;;23.10;63.80;;;;;;222072;1256;24202;-53
2023/04/22 23:48:27;;;;;;;10.50;9.50;;;23.10;63.80;;;;;;222367;1260;22511;-52
2023/04/22 23:53:31;;;;;;;13.50;10.40;;;23.00;63.80;;;;;;222333;1255;23089;-53
2023/04/22 23:58:36;;;;;;;12.70;9.90;;;23.00;63.90;;;;;;222403;1260;22504;-53
